NCAR-RAP Real-Time Weather Data

Output produced by METARs form (08 May 2021  17:12 UTC)
found at http://weather.rap.ucar.edu/surface/
 
KRDD 081653Z AUTO 36018G33KT 10SM CLR 19/M04 A3017 RMK AO2 PK WND 01033/1646 SLP214 T01941044
KRDD 081553Z AUTO 36015G24KT 10SM CLR 18/M04 A3018 RMK AO2 SLP217 T01781039
KRDD 081453Z AUTO 34013G22KT 10SM CLR 16/M03 A3018 RMK AO2 PK WND 35026/1419 SLP216 T01611028 53009
KRDD 081353Z AUTO 35013G23KT 10SM CLR 16/M03 A3017 RMK AO2 SLP213 T01561033
KRDD 081253Z AUTO 35011G22KT 10SM CLR 15/M03 A3016 RMK AO2 SLP209 T01501028
KRDD 081153Z AUTO 35010KT 10SM CLR 14/M02 A3015 RMK AO2 SLP207 T01441022 10189 20144 51007
KRDD 081053Z AUTO 36014G21KT 10SM CLR 16/M04 A3014 RMK AO2 SLP203 T01611039
KRDD 080953Z AUTO 35010G18KT 10SM CLR 16/M03 A3014 RMK AO2 SLP204 T01561028
KRDD 080853Z AUTO 36011KT 10SM CLR 16/M03 A3013 RMK AO2 SLP200 T01611028 53014
KRDD 080753Z AUTO 01011KT 10SM CLR 18/M03 A3012 RMK AO2 SLP195 T01781033 402720144
KRDD 080653Z 01010KT 10SM CLR 18/M04 A3010 RMK AO2 SLP188 T01781039
KRDD 080553Z 02013KT 10SM CLR 19/M03 A3009 RMK AO2 SLP186 T01891033 10272 20189 51031
KRDD 080453Z 01014KT 10SM CLR 21/M03 A3007 RMK AO2 SLP178 T02061028